createdAt,value
2023-01-13T00:01:15.786Z,100084.44
2023-01-13T00:03:44.064Z,100088.59
2023-01-13T00:06:15.327Z,100087.66
2023-01-13T00:08:42.952Z,100085.97
2023-01-13T00:11:11.115Z,100086.69
2023-01-13T00:13:38.704Z,100081.38
2023-01-13T00:16:09.176Z,100083.16
2023-01-13T00:18:37.444Z,100101.19
2023-01-13T00:21:07.358Z,100104.00
2023-01-13T00:23:37.504Z,100076.16
2023-01-13T00:26:07.182Z,100091.47
2023-01-13T00:28:35.117Z,100089.84
2023-01-13T00:31:06.441Z,100088.66
2023-01-13T00:33:34.025Z,100086.97
2023-01-13T00:36:02.901Z,100086.88
2023-01-13T00:38:32.567Z,100077.19
2023-01-13T00:41:03.915Z,100070.09
2023-01-13T00:43:32.807Z,100077.78
2023-01-13T00:46:01.306Z,100069.88
2023-01-13T00:48:29.593Z,100070.69
2023-01-13T00:50:58.115Z,100085.38
2023-01-13T00:53:26.833Z,100080.06
2023-01-13T00:56:01.861Z,100081.00
2023-01-13T00:58:31.745Z,100063.25
2023-01-13T01:01:01.437Z,100075.47
2023-01-13T01:03:29.365Z,100071.91
2023-01-13T01:05:57.069Z,100075.25
2023-01-13T01:08:24.926Z,100087.41
2023-01-13T01:11:03.449Z,100074.28
2023-01-13T01:13:31.138Z,100081.88
2023-01-13T01:15:59.162Z,100078.44
2023-01-13T01:18:27.161Z,100086.06
2023-01-13T01:20:54.733Z,100075.97
2023-01-13T01:23:22.317Z,100079.06
2023-01-13T01:25:49.935Z,100089.25
2023-01-13T01:28:20.766Z,100085.47
2023-01-13T01:30:48.749Z,100090.56
2023-01-13T01:33:16.878Z,100088.06
2023-01-13T01:35:44.496Z,100075.78
2023-01-13T01:38:12.111Z,100077.44
2023-01-13T01:40:39.763Z,100073.19
2023-01-13T01:43:32.907Z,100066.19
2023-01-13T01:46:01.860Z,100073.06
2023-01-13T01:48:32.112Z,100077.09
2023-01-13T01:51:00.108Z,100077.19
2023-01-13T01:53:29.965Z,100063.25
2023-01-13T01:55:59.295Z,100064.88
2023-01-13T01:58:32.952Z,100057.06
2023-01-13T02:01:02.431Z,100071.88
2023-01-13T02:03:30.968Z,100062.28
2023-01-13T02:05:58.560Z,100060.53
2023-01-13T02:08:26.152Z,100057.69
2023-01-13T02:10:55.164Z,100059.34
2023-01-13T02:13:23.065Z,100052.97
2023-01-13T02:15:58.324Z,100067.53
2023-01-13T02:18:54.547Z,100058.66
2023-01-13T02:21:53.928Z,100058.53
2023-01-13T02:24:55.496Z,100048.81
2023-01-13T02:27:40.070Z,100053.81
2023-01-13T02:30:37.143Z,100045.75
2023-01-13T02:33:18.207Z,100046.91
2023-01-13T02:35:52.481Z,100034.47
2023-01-13T02:38:24.650Z,100032.72
2023-01-13T02:40:59.421Z,100040.88
2023-01-13T02:43:51.216Z,100039.94
2023-01-13T02:46:26.653Z,100043.28
2023-01-13T02:48:58.179Z,100043.97
2023-01-13T02:51:29.323Z,100048.47
2023-01-13T02:54:02.393Z,100049.31
2023-01-13T02:56:32.643Z,100034.25
2023-01-13T02:59:02.746Z,100043.03
2023-01-13T03:01:31.768Z,100033.53
2023-01-13T03:03:59.314Z,100046.81
2023-01-13T03:06:42.369Z,100046.69
2023-01-13T03:09:16.988Z,100039.09
2023-01-13T03:11:56.813Z,100037.69
2023-01-13T03:14:37.282Z,100039.22
2023-01-13T03:17:17.468Z,100036.50
2023-01-13T03:19:54.772Z,100034.72
2023-01-13T03:22:27.990Z,100032.25
2023-01-13T03:25:01.327Z,100036.50
2023-01-13T03:27:35.694Z,100026.88
2023-01-13T03:30:08.304Z,100009.59
2023-01-13T03:32:41.353Z,100021.56
2023-01-13T03:35:15.537Z,100021.66
2023-01-13T03:37:47.686Z,100022.28
2023-01-13T03:40:18.311Z,100011.25
2023-01-13T03:43:04.061Z,100027.41
2023-01-13T03:45:33.292Z,100027.41
2023-01-13T03:48:07.307Z,100021.56
2023-01-13T03:50:39.744Z,100031.28
2023-01-13T03:53:12.535Z,100020.97
2023-01-13T03:55:44.417Z,100026.88
2023-01-13T03:58:16.554Z,100021.19
2023-01-13T04:00:49.197Z,100020.97
2023-01-13T04:03:23.997Z,100036.59
2023-01-13T04:05:58.564Z,100031.41
2023-01-13T04:08:28.327Z,100032.69
2023-01-13T04:11:03.487Z,100017.44
2023-01-13T04:13:34.860Z,100019.31
2023-01-13T04:16:02.542Z,100020.03
2023-01-13T04:18:32.018Z,100010.31
2023-01-13T04:21:01.185Z,100015.28
2023-01-13T04:23:30.080Z,100012.56
2023-01-13T04:25:58.080Z,100007.59
2023-01-13T04:28:26.935Z,100002.38
2023-01-13T04:30:54.485Z,100011.97
2023-01-13T04:33:22.187Z,100010.09
2023-01-13T04:35:52.594Z,100003.19
2023-01-13T04:38:22.053Z,100015.41
2023-01-13T04:40:49.651Z,100024.28
2023-01-13T04:43:17.194Z,100016.34
2023-01-13T04:45:45.122Z,100020.03
2023-01-13T04:48:12.722Z,100023.56
2023-01-13T04:50:40.466Z,100023.81
2023-01-13T04:53:09.554Z,100026.53
2023-01-13T04:55:37.052Z,100034.13
2023-01-13T04:58:06.084Z,100031.63
2023-01-13T05:00:34.150Z,100030.91
2023-01-13T05:03:02.188Z,100030.09
2023-01-13T05:05:31.122Z,100037.91
2023-01-13T05:07:59.104Z,100044.53
2023-01-13T05:10:28.322Z,100048.13
2023-01-13T05:13:13.584Z,100052.03
2023-01-13T05:15:59.332Z,100048.81
2023-01-13T05:18:27.156Z,100050.13
2023-01-13T05:20:54.671Z,100045.53
2023-01-13T05:23:39.659Z,100044.69
2023-01-13T05:26:08.704Z,100050.75
2023-01-13T05:28:36.437Z,100042.94
2023-01-13T05:31:04.008Z,100026.31
2023-01-13T05:33:31.556Z,100026.44
2023-01-13T05:36:03.441Z,100038.41
2023-01-13T05:38:30.915Z,100036.50
2023-01-13T05:41:17.520Z,100042.66
2023-01-13T05:43:46.287Z,100033.09
2023-01-13T05:46:14.952Z,100045.03
2023-01-13T05:48:43.774Z,100040.41
2023-01-13T05:51:12.803Z,100039.84
2023-01-13T05:53:41.209Z,100038.06
2023-01-13T05:56:09.910Z,100050.25
2023-01-13T05:58:38.237Z,100044.34
2023-01-13T06:01:08.863Z,100055.59
2023-01-13T06:03:36.956Z,100051.13
2023-01-13T06:06:04.818Z,100062.38
2023-01-13T06:08:33.133Z,100063.88
2023-01-13T06:11:00.832Z,100052.53
2023-01-13T06:13:28.726Z,100043.03
2023-01-13T06:16:00.690Z,100050.63
2023-01-13T06:18:30.187Z,100054.09
2023-01-13T06:20:58.018Z,100050.63
2023-01-13T06:23:25.816Z,100054.78
2023-01-13T06:26:01.036Z,100062.13
2023-01-13T06:28:28.481Z,100075.66
2023-01-13T06:30:59.271Z,100079.09
2023-01-13T06:33:34.515Z,100089.63
2023-01-13T06:36:07.399Z,100086.09
2023-01-13T06:38:38.607Z,100082.53
2023-01-13T06:41:08.060Z,100082.88
2023-01-13T06:43:34.690Z,100073.97
2023-01-13T06:46:02.619Z,100077.19
2023-01-13T06:48:35.018Z,100065.69
2023-01-13T06:51:02.841Z,100070.22
2023-01-13T06:53:30.374Z,100083.03
2023-01-13T06:55:57.878Z,100069.00
2023-01-13T06:58:25.316Z,100048.03
2023-01-13T07:00:53.565Z,100039.28
2023-01-13T07:03:22.807Z,100057.66
2023-01-13T07:05:56.281Z,100067.25
2023-01-13T07:08:24.796Z,100062.63
2023-01-13T07:10:53.208Z,100073.63
2023-01-13T07:13:38.903Z,100066.75
2023-01-13T07:16:08.927Z,100070.09
2023-01-13T07:18:37.157Z,100047.66
2023-01-13T07:21:07.845Z,100069.63
2023-01-13T07:23:37.680Z,100074.72
2023-01-13T07:26:08.233Z,100067.94
2023-01-13T07:28:36.621Z,100068.66
2023-01-13T07:31:05.029Z,100067.72
2023-01-13T07:33:33.226Z,100062.84
2023-01-13T07:36:02.319Z,100071.50
2023-01-13T07:38:31.858Z,100066.38
2023-01-13T07:41:21.990Z,100050.75
2023-01-13T07:43:48.625Z,100047.44
2023-01-13T07:46:16.618Z,100049.22
2023-01-13T07:48:44.441Z,100073.72
2023-01-13T07:51:13.777Z,100057.97
2023-01-13T07:53:42.755Z,100061.66
2023-01-13T07:56:10.426Z,100072.19
2023-01-13T07:58:38.384Z,100083.34
2023-01-13T08:01:08.447Z,100088.66
2023-01-13T08:03:36.287Z,100084.50
2023-01-13T08:06:04.344Z,100071.72
2023-01-13T08:08:32.846Z,100082.03
2023-01-13T08:11:03.074Z,100099.56
2023-01-13T08:13:31.355Z,100099.78
2023-01-13T08:16:01.985Z,100112.91
2023-01-13T08:18:30.356Z,100132.03
2023-01-13T08:21:03.507Z,100117.31
2023-01-13T08:23:31.375Z,100109.00
2023-01-13T08:26:03.505Z,100125.72
2023-01-13T08:28:32.132Z,100121.44
2023-01-13T08:31:02.170Z,100124.75
2023-01-13T08:33:30.483Z,100132.19
2023-01-13T08:35:58.966Z,100143.13
2023-01-13T08:38:26.796Z,100146.31
2023-01-13T08:40:54.561Z,100129.25
2023-01-13T08:43:23.693Z,100108.53
2023-01-13T08:45:57.619Z,100105.09
2023-01-13T08:48:25.543Z,100111.63
2023-01-13T08:50:54.803Z,100114.00
2023-01-13T08:53:22.422Z,100125.34
2023-01-13T08:55:52.527Z,100125.25
2023-01-13T08:58:20.089Z,100139.34
2023-01-13T09:00:49.054Z,100156.53
2023-01-13T09:03:16.580Z,100159.75
2023-01-13T09:05:44.908Z,100158.91
2023-01-13T09:08:12.723Z,100160.59
2023-01-13T09:10:40.982Z,100163.19
2023-01-13T09:13:13.891Z,100158.44
2023-01-13T09:15:43.088Z,100135.56
2023-01-13T09:18:14.210Z,100087.69
2023-01-13T09:20:43.038Z,100033.66
2023-01-13T09:23:11.529Z,100055.72
2023-01-13T09:25:39.844Z,100069.31
2023-01-13T09:28:09.940Z,100061.38
2023-01-13T09:30:38.972Z,100107.69
2023-01-13T09:33:24.689Z,100118.47
2023-01-13T09:35:59.029Z,100112.53
2023-01-13T09:38:26.531Z,100100.09
2023-01-13T09:40:55.948Z,100125.72
2023-01-13T09:43:47.993Z,100115.16
2023-01-13T09:46:38.699Z,100100.38
2023-01-13T09:49:09.064Z,100106.50
2023-01-13T09:51:45.926Z,100104.13
2023-01-13T09:54:25.598Z,100106.34
2023-01-13T09:56:54.425Z,100129.09
2023-01-13T09:59:22.529Z,100127.31
2023-01-13T10:01:59.673Z,100118.06
2023-01-13T10:04:28.569Z,100125.56
2023-01-13T10:07:03.101Z,100126.50
2023-01-13T10:09:41.844Z,100123.91
2023-01-13T10:12:35.498Z,100137.16
2023-01-13T10:15:05.486Z,100125.03
2023-01-13T10:17:41.123Z,100134.88
2023-01-13T10:20:20.603Z,100122.59
2023-01-13T10:23:01.458Z,100131.34
2023-01-13T10:25:40.524Z,100132.38
2023-01-13T10:28:14.512Z,100128.50
2023-01-13T10:30:46.618Z,100140.03
2023-01-13T10:33:18.143Z,100128.63
2023-01-13T10:35:59.285Z,100129.94
2023-01-13T10:38:33.037Z,100135.34
2023-01-13T10:41:03.325Z,100137.16
2023-01-13T10:43:41.321Z,100126.00
2023-01-13T10:46:17.863Z,100130.88
2023-01-13T10:48:53.514Z,100135.94
2023-01-13T10:51:42.558Z,100126.00
2023-01-13T10:54:46.107Z,100128.41
2023-01-13T10:57:38.419Z,100122.38
2023-01-13T11:00:10.665Z,100126.53
2023-01-13T11:05:26.655Z,100137.34
2023-01-13T11:07:58.277Z,100130.72
2023-01-13T11:10:38.606Z,100142.41
2023-01-13T11:13:15.837Z,100143.69
2023-01-13T11:15:51.122Z,100138.59
2023-01-13T11:18:28.425Z,100137.53
2023-01-13T11:20:58.363Z,100149.88
2023-01-13T11:23:33.200Z,100145.91
2023-01-13T11:26:06.344Z,100145.09
2023-01-13T11:28:54.217Z,100145.47
2023-01-13T11:31:27.369Z,100145.00
2023-01-13T11:34:02.641Z,100147.69
2023-01-13T11:36:39.766Z,100140.81
2023-01-13T11:39:22.602Z,100133.06
2023-01-13T11:42:20.769Z,100139.53
2023-01-13T11:49:07.194Z,100135.28
2023-01-13T11:55:09.535Z,100140.28
2023-01-13T11:57:58.195Z,100152.00
2023-01-13T12:00:49.096Z,100147.69
2023-01-13T12:03:31.287Z,100139.38
2023-01-13T12:06:12.446Z,100144.44
2023-01-13T12:09:00.432Z,100159.88
2023-01-13T12:11:34.963Z,100149.59
2023-01-13T12:14:17.238Z,100136.66
2023-01-13T12:16:50.620Z,100139.28
2023-01-13T12:19:41.464Z,100138.13
2023-01-13T12:22:22.513Z,100152.78
2023-01-13T12:24:59.816Z,100141.47
2023-01-13T12:27:42.206Z,100134.16
2023-01-13T12:30:29.555Z,100142.91
2023-01-13T12:33:18.907Z,100139.75
2023-01-13T12:35:59.097Z,100134.94
2023-01-13T12:38:49.260Z,100139.72
2023-01-13T12:44:30.777Z,100152.75
2023-01-13T12:47:02.280Z,100144.00
2023-01-13T12:49:39.423Z,100140.34
2023-01-13T12:52:18.610Z,100146.34
2023-01-13T12:55:22.692Z,100165.28
2023-01-13T12:58:14.418Z,100161.97
2023-01-13T13:01:01.425Z,100149.00
2023-01-13T13:03:36.745Z,100153.91
2023-01-13T13:20:47.213Z,100148.22
2023-01-13T13:24:01.811Z,100161.34
2023-01-13T13:26:38.242Z,100153.06
2023-01-13T13:29:44.489Z,100158.59
2023-01-13T13:32:29.168Z,100157.22
2023-01-13T13:35:09.856Z,100182.72
2023-01-13T13:38:09.655Z,100175.75
2023-01-13T13:41:05.280Z,100168.53
2023-01-13T13:43:59.105Z,100173.06
2023-01-13T13:52:55.864Z,100179.31
2023-01-13T13:58:26.034Z,100180.84
2023-01-13T14:00:56.651Z,100197.16
2023-01-13T14:03:28.569Z,100174.88
2023-01-13T14:05:59.430Z,100185.94
2023-01-13T14:08:29.209Z,100178.09
2023-01-13T14:10:57.563Z,100179.16
2023-01-13T14:13:31.160Z,100180.00
2023-01-13T14:16:08.366Z,100184.00
2023-01-13T14:18:51.621Z,100180.03
2023-01-13T14:21:30.413Z,100184.25
2023-01-13T14:24:13.876Z,100194.56
2023-01-13T14:26:46.139Z,100189.63
2023-01-13T14:29:25.114Z,100204.63
2023-01-13T14:34:51.859Z,100208.44
2023-01-13T14:37:40.556Z,100205.97
2023-01-13T14:40:46.614Z,100204.56
2023-01-13T14:43:17.581Z,100197.19
2023-01-13T14:45:59.388Z,100185.25
2023-01-13T14:48:35.539Z,100203.28
2023-01-13T14:51:08.411Z,100195.81
2023-01-13T14:53:47.216Z,100200.19
2023-01-13T14:56:39.293Z,100204.47
2023-01-13T14:59:57.601Z,100204.91
2023-01-13T15:03:01.145Z,100207.56
2023-01-13T15:06:00.228Z,100201.97
2023-01-13T15:11:35.195Z,100205.22
2023-01-13T15:14:04.945Z,100212.81
2023-01-13T15:16:35.028Z,100199.97
2023-01-13T15:19:14.325Z,100205.66
2023-01-13T15:21:47.079Z,100220.72
2023-01-13T15:36:20.842Z,100223.22
2023-01-13T15:38:50.646Z,100232.91
2023-01-13T15:41:39.000Z,100228.88
2023-01-13T15:44:31.569Z,100240.25
2023-01-13T15:47:16.551Z,100247.25
2023-01-13T15:49:48.305Z,100244.13
2023-01-13T15:52:21.412Z,100243.25
2023-01-13T15:54:48.965Z,100251.69
2023-01-13T15:57:23.162Z,100244.06
2023-01-13T15:59:51.914Z,100247.97
2023-01-13T16:02:19.444Z,100253.59
2023-01-13T16:04:51.935Z,100249.44
2023-01-13T16:07:22.122Z,100260.06
2023-01-13T16:09:49.660Z,100263.53
2023-01-13T16:12:17.389Z,100264.88
2023-01-13T16:14:44.865Z,100250.91
2023-01-13T16:17:16.508Z,100263.13
2023-01-13T16:19:44.077Z,100264.97
2023-01-13T16:22:13.580Z,100267.94
2023-01-13T16:24:43.813Z,100261.88
2023-01-13T16:27:15.292Z,100279.81
2023-01-13T16:29:42.877Z,100263.16
2023-01-13T16:32:10.428Z,100268.56
2023-01-13T16:34:38.376Z,100273.78
2023-01-13T16:37:07.333Z,100289.19
2023-01-13T16:39:34.932Z,100289.41
2023-01-13T16:42:03.878Z,100301.91
2023-01-13T16:44:31.415Z,100301.81
2023-01-13T16:46:58.941Z,100299.13
2023-01-13T16:49:26.449Z,100306.06
2023-01-13T16:51:53.958Z,100318.47
2023-01-13T16:54:21.446Z,100328.91
2023-01-13T16:56:48.942Z,100331.81
2023-01-13T16:59:17.697Z,100330.06
2023-01-13T17:01:45.766Z,100317.66
2023-01-13T17:04:16.494Z,100320.78
2023-01-13T17:06:51.021Z,100321.28
2023-01-13T17:09:25.314Z,100346.50
2023-01-13T17:11:53.289Z,100346.19
2023-01-13T17:14:23.400Z,100345.13
2023-01-13T17:16:52.493Z,100339.38
2023-01-13T17:19:21.692Z,100340.53
2023-01-13T17:21:50.962Z,100334.38
2023-01-13T17:24:18.521Z,100347.41
2023-01-13T17:26:49.004Z,100351.94
2023-01-13T17:29:22.158Z,100349.72
2023-01-13T17:31:51.667Z,100355.88
2023-01-13T17:34:19.875Z,100361.81
2023-01-13T17:36:47.776Z,100362.44
2023-01-13T17:39:17.686Z,100361.00
2023-01-13T17:41:45.758Z,100360.03
2023-01-13T17:44:14.952Z,100366.19
2023-01-13T17:47:01.623Z,100371.50
2023-01-13T17:49:39.429Z,100365.66
2023-01-13T17:52:09.675Z,100368.28
2023-01-13T17:54:37.369Z,100370.88
2023-01-13T17:57:07.857Z,100367.94
2023-01-13T17:59:35.714Z,100366.84
2023-01-13T18:02:07.563Z,100380.03
2023-01-13T18:04:36.773Z,100380.22
2023-01-13T18:07:05.541Z,100372.72
2023-01-13T18:09:33.487Z,100365.72
2023-01-13T18:12:04.411Z,100371.66
2023-01-13T18:14:35.362Z,100372.38
2023-01-13T18:17:03.054Z,100371.47
2023-01-13T18:19:51.586Z,100384.56
2023-01-13T18:22:37.180Z,100392.47
2023-01-13T18:25:22.853Z,100397.38
2023-01-13T18:27:50.561Z,100395.88
2023-01-13T18:30:18.973Z,100389.88
2023-01-13T18:32:46.519Z,100398.31
2023-01-13T18:35:15.624Z,100399.69
2023-01-13T18:37:44.339Z,100397.63
2023-01-13T18:40:13.868Z,100402.72
2023-01-13T18:42:54.232Z,100406.44
2023-01-13T18:45:24.198Z,100411.94
2023-01-13T18:47:52.313Z,100415.31
2023-01-13T18:50:22.325Z,100413.19
2023-01-13T18:52:50.359Z,100403.69
2023-01-13T18:55:18.553Z,100429.94
2023-01-13T18:57:46.585Z,100431.38
2023-01-13T19:00:17.317Z,100421.19
2023-01-13T19:02:47.071Z,100427.97
2023-01-13T19:05:15.282Z,100424.31
2023-01-13T19:07:50.325Z,100428.41
2023-01-13T19:10:18.907Z,100429.22
2023-01-13T19:12:46.477Z,100435.34
2023-01-13T19:15:14.116Z,100446.63
2023-01-13T19:17:41.705Z,100448.38
2023-01-13T19:20:11.628Z,100452.47
2023-01-13T19:22:39.144Z,100459.22
2023-01-13T19:25:08.659Z,100460.25
2023-01-13T19:27:36.178Z,100459.22
2023-01-13T19:30:04.186Z,100461.09
2023-01-13T19:32:33.795Z,100461.72
2023-01-13T19:35:01.363Z,100479.31
2023-01-13T19:37:30.282Z,100466.94
2023-01-13T19:39:58.964Z,100485.16
2023-01-13T19:42:45.751Z,100483.22
2023-01-13T19:45:31.188Z,100473.44
2023-01-13T19:48:01.770Z,100484.03
2023-01-13T19:53:47.526Z,100477.91
2023-01-13T20:00:56.367Z,100473.63
2023-01-13T20:07:00.515Z,100508.75
2023-01-13T20:10:05.442Z,100500.97
2023-01-13T20:13:45.294Z,100513.03
2023-01-13T20:17:22.642Z,100514.72
2023-01-13T20:40:38.906Z,100531.53
2023-01-13T20:43:53.436Z,100535.91
2023-01-13T20:47:34.824Z,100549.75
2023-01-13T20:50:12.456Z,100543.53
2023-01-13T20:52:40.289Z,100556.00
2023-01-13T20:58:13.998Z,100545.31
2023-01-13T21:00:41.687Z,100537.50
2023-01-13T21:03:09.168Z,100542.50
2023-01-13T21:05:37.064Z,100541.75
2023-01-13T21:08:04.795Z,100545.94
2023-01-13T21:10:32.442Z,100552.91
2023-01-13T21:13:17.759Z,100541.47
2023-01-13T21:15:49.036Z,100548.75
2023-01-13T21:18:36.321Z,100553.94
2023-01-13T21:21:12.292Z,100556.16
2023-01-13T21:23:40.947Z,100559.59
2023-01-13T21:26:09.236Z,100560.69
2023-01-13T21:28:37.024Z,100562.56
2023-01-13T21:31:07.355Z,100560.91
2023-01-13T21:33:34.952Z,100565.09
2023-01-13T21:36:05.601Z,100569.38
2023-01-13T21:38:33.431Z,100571.88
2023-01-13T21:41:04.722Z,100565.44
2023-01-13T21:43:50.464Z,100572.34
2023-01-13T21:46:37.379Z,100568.16
2023-01-13T21:49:06.210Z,100587.94
2023-01-13T21:51:34.463Z,100588.78
2023-01-13T21:54:02.379Z,100590.56
2023-01-13T21:56:29.929Z,100598.34
2023-01-13T21:58:57.469Z,100595.94
2023-01-13T22:01:26.410Z,100595.19
2023-01-13T22:04:12.054Z,100593.53
2023-01-13T22:06:39.765Z,100611.28
2023-01-13T22:09:07.562Z,100610.53
2023-01-13T22:11:35.141Z,100604.88
2023-01-13T22:14:09.327Z,100608.19
2023-01-13T22:16:41.554Z,100612.84
2023-01-13T22:19:10.944Z,100615.28
2023-01-13T22:21:39.114Z,100605.03
2023-01-13T22:24:07.292Z,100606.81
2023-01-13T22:26:34.984Z,100608.47
2023-01-13T22:29:02.747Z,100608.69
2023-01-13T22:31:31.569Z,100620.00
2023-01-13T22:34:00.810Z,100618.13
2023-01-13T22:36:28.336Z,100625.19
2023-01-13T22:38:56.747Z,100634.78
2023-01-13T22:41:24.568Z,100631.22
2023-01-13T22:43:52.376Z,100641.72
2023-01-13T22:46:19.913Z,100631.13
2023-01-13T22:48:48.312Z,100645.19
2023-01-13T22:51:18.660Z,100634.78
2023-01-13T22:53:46.401Z,100633.84
2023-01-13T22:56:17.764Z,100646.28
2023-01-13T22:58:45.712Z,100644.31
2023-01-13T23:01:15.394Z,100650.28
2023-01-13T23:03:45.372Z,100663.00
2023-01-13T23:06:12.932Z,100658.97
2023-01-13T23:08:41.815Z,100670.31
2023-01-13T23:11:11.781Z,100666.69
2023-01-13T23:13:42.448Z,100663.25
2023-01-13T23:16:12.205Z,100675.44
2023-01-13T23:18:42.463Z,100666.38
2023-01-13T23:21:13.293Z,100669.94
2023-01-13T23:23:42.503Z,100664.13
2023-01-13T23:26:13.412Z,100664.41
2023-01-13T23:28:41.288Z,100667.03
2023-01-13T23:31:10.586Z,100659.22
2023-01-13T23:33:41.073Z,100662.66
2023-01-13T23:36:12.952Z,100672.69
2023-01-13T23:38:47.448Z,100674.44
2023-01-13T23:41:18.725Z,100663.56
2023-01-13T23:43:51.175Z,100675.00
2023-01-13T23:46:20.165Z,100660.22
2023-01-13T23:48:47.721Z,100669.13
2023-01-13T23:51:15.836Z,100672.38
2023-01-13T23:53:47.027Z,100687.91
2023-01-13T23:56:16.125Z,100677.84
2023-01-13T23:58:44.595Z,100685.56
